createdAt,value
2018-06-03T00:02:18.390Z,8.37
2018-06-03T00:04:46.286Z,8.83
2018-06-03T00:07:14.355Z,8.67
2018-06-03T00:09:42.319Z,7.90
2018-06-03T00:12:10.194Z,8.73
2018-06-03T00:14:38.156Z,8.37
2018-06-03T00:17:06.060Z,8.27
2018-06-03T00:19:34.720Z,8.93
2018-06-03T00:22:02.831Z,8.27
2018-06-03T00:24:30.763Z,8.00
2018-06-03T00:26:58.668Z,9.07
2018-06-03T00:29:26.591Z,8.43
2018-06-03T00:31:54.568Z,8.57
2018-06-03T00:34:22.490Z,8.10
2018-06-03T00:36:50.376Z,8.07
2018-06-03T00:39:18.296Z,8.33
2018-06-03T00:41:46.950Z,7.80
2018-06-03T00:44:14.841Z,7.70
2018-06-03T00:46:42.757Z,8.03
2018-06-03T00:49:10.667Z,8.00
2018-06-03T00:51:38.550Z,8.20
2018-06-03T00:54:07.238Z,8.03
2018-06-03T00:56:47.639Z,8.63
2018-06-03T00:59:15.567Z,8.37
2018-06-03T01:01:44.237Z,8.20
2018-06-03T01:04:12.115Z,8.40
2018-06-03T01:06:40.788Z,8.90
2018-06-03T01:09:08.678Z,8.20
2018-06-03T01:11:37.288Z,7.63
2018-06-03T01:14:05.248Z,8.27
2018-06-03T01:16:33.273Z,8.57
2018-06-03T01:19:01.154Z,8.47
2018-06-03T01:21:29.064Z,8.63
2018-06-03T01:23:56.937Z,8.13
2018-06-03T01:26:24.812Z,8.57
2018-06-03T01:28:52.687Z,8.60
2018-06-03T01:31:20.608Z,8.40
2018-06-03T01:33:49.287Z,8.67
2018-06-03T01:36:17.225Z,8.33
2018-06-03T01:38:45.142Z,8.67
2018-06-03T01:41:13.801Z,8.87
2018-06-03T01:43:41.713Z,8.77
2018-06-03T01:46:09.605Z,8.47
2018-06-03T01:48:37.491Z,8.80
2018-06-03T01:51:05.415Z,8.33
2018-06-03T01:53:33.310Z,8.57
2018-06-03T01:56:01.191Z,8.73
2018-06-03T01:58:29.116Z,9.10
2018-06-03T02:00:56.993Z,9.17
2018-06-03T02:03:24.870Z,8.23
2018-06-03T02:05:52.787Z,8.67
2018-06-03T02:08:21.461Z,8.87
2018-06-03T02:10:50.856Z,8.40
2018-06-03T02:13:18.771Z,8.67
2018-06-03T02:15:46.671Z,8.30
2018-06-03T02:18:14.559Z,8.70
2018-06-03T02:20:42.486Z,8.27
2018-06-03T02:23:10.370Z,9.40
2018-06-03T02:25:38.248Z,8.40
2018-06-03T02:28:06.191Z,8.67
2018-06-03T02:30:34.118Z,9.03
2018-06-03T02:33:01.992Z,9.07
2018-06-03T02:35:30.689Z,8.90
2018-06-03T02:37:59.343Z,8.67
2018-06-03T02:40:27.214Z,8.97
2018-06-03T02:42:55.126Z,9.70
2018-06-03T02:45:23.020Z,10.00
2018-06-03T02:47:50.928Z,9.30
2018-06-03T02:50:18.818Z,9.17
2018-06-03T02:52:47.449Z,9.20
2018-06-03T02:55:15.369Z,9.07
2018-06-03T02:57:44.033Z,9.60
2018-06-03T03:00:11.931Z,10.23
2018-06-03T03:02:40.591Z,10.70
2018-06-03T03:05:08.513Z,10.27
2018-06-03T03:07:36.395Z,10.07
2018-06-03T03:10:04.356Z,9.30
2018-06-03T03:12:32.263Z,10.10
2018-06-03T03:15:00.226Z,9.57
2018-06-03T03:17:28.112Z,10.03
2018-06-03T03:19:56.789Z,9.97
2018-06-03T03:22:24.702Z,10.07
2018-06-03T03:24:52.601Z,9.60
2018-06-03T03:27:20.482Z,9.30
2018-06-03T03:29:48.402Z,9.37
2018-06-03T03:32:16.368Z,9.83
2018-06-03T03:34:44.317Z,10.17
2018-06-03T03:37:12.983Z,9.67
2018-06-03T03:39:40.884Z,9.70
2018-06-03T03:42:08.793Z,10.27
2018-06-03T03:44:36.687Z,9.07
2018-06-03T03:47:04.588Z,9.30
2018-06-03T03:49:32.507Z,8.67
2018-06-03T03:52:00.490Z,8.90
2018-06-03T03:54:28.354Z,9.17
2018-06-03T03:56:56.290Z,8.27
2018-06-03T03:59:24.157Z,9.40
2018-06-03T04:01:52.053Z,8.97
2018-06-03T04:04:19.936Z,8.90
2018-06-03T04:06:47.833Z,8.87
2018-06-03T04:09:15.707Z,8.90
2018-06-03T04:11:43.590Z,9.30
2018-06-03T04:14:11.470Z,9.87
2018-06-03T04:16:39.358Z,9.50
2018-06-03T04:19:07.325Z,9.03
2018-06-03T04:21:35.223Z,8.57
2018-06-03T04:24:03.931Z,8.87
2018-06-03T04:26:31.820Z,8.53
2018-06-03T04:28:59.694Z,8.80
2018-06-03T04:31:27.583Z,9.43
2018-06-03T04:33:55.513Z,8.60
2018-06-03T04:36:23.424Z,7.97
2018-06-03T04:38:51.361Z,8.40
2018-06-03T04:41:19.319Z,8.87
2018-06-03T04:43:47.269Z,7.40
2018-06-03T04:46:15.908Z,8.30
2018-06-03T04:48:43.847Z,7.73
2018-06-03T04:51:12.110Z,6.97
2018-06-03T04:53:40.083Z,7.70
2018-06-03T04:56:08.352Z,7.13
2018-06-03T04:58:36.340Z,7.23
2018-06-03T05:01:04.288Z,7.10
2018-06-03T05:03:33.042Z,6.93
2018-06-03T05:06:01.104Z,6.70
2018-06-03T05:08:29.230Z,6.57
2018-06-03T05:10:57.094Z,6.43
2018-06-03T05:13:24.974Z,6.90
2018-06-03T05:15:53.328Z,7.07
2018-06-03T05:18:21.993Z,6.60
2018-06-03T05:20:49.875Z,7.20
2018-06-03T05:23:18.561Z,6.70
2018-06-03T05:25:47.373Z,7.03
2018-06-03T05:28:15.282Z,7.03
2018-06-03T05:30:43.176Z,6.60
2018-06-03T05:33:11.133Z,6.23
2018-06-03T05:35:39.055Z,6.53
2018-06-03T05:38:06.950Z,7.97
2018-06-03T05:40:34.839Z,6.87
2018-06-03T05:43:02.734Z,6.70
2018-06-03T05:45:31.394Z,6.50
2018-06-03T05:47:59.309Z,6.30
2018-06-03T05:50:49.853Z,6.70
2018-06-03T05:53:31.297Z,6.40
2018-06-03T05:56:07.698Z,7.10
2018-06-03T05:58:35.587Z,7.10
2018-06-03T06:01:03.541Z,7.00
2018-06-03T06:03:31.413Z,6.03
2018-06-03T06:05:59.336Z,6.37
2018-06-03T06:08:27.221Z,5.97
2018-06-03T06:10:55.090Z,6.57
2018-06-03T06:13:22.954Z,6.25
2018-06-03T06:15:50.898Z,5.83
2018-06-03T06:18:18.830Z,6.65
2018-06-03T06:20:46.764Z,6.32
2018-06-03T06:23:14.685Z,5.63
2018-06-03T06:25:42.623Z,5.60
2018-06-03T06:28:10.523Z,6.10
2018-06-03T06:30:39.178Z,5.22
2018-06-03T06:33:07.070Z,5.20
2018-06-03T06:35:35.729Z,4.93
2018-06-03T06:38:03.628Z,5.00
2018-06-03T06:40:32.383Z,4.47
2018-06-03T06:43:00.294Z,5.30
2018-06-03T06:45:28.978Z,5.15
2018-06-03T06:47:57.671Z,5.60
2018-06-03T06:50:26.439Z,5.30
2018-06-03T06:52:55.117Z,5.47
2018-06-03T06:55:23.005Z,5.27
2018-06-03T06:57:51.676Z,5.00
2018-06-03T07:00:19.634Z,5.45
2018-06-03T07:02:47.519Z,5.20
2018-06-03T07:05:16.196Z,5.47
2018-06-03T07:07:44.050Z,5.27
2018-06-03T07:10:11.967Z,5.28
2018-06-03T07:12:39.872Z,5.47
2018-06-03T07:15:07.742Z,5.20
2018-06-03T07:17:36.621Z,5.20
2018-06-03T07:20:05.284Z,5.20
2018-06-03T07:22:33.129Z,4.93
2018-06-03T07:25:01.811Z,6.40
2018-06-03T07:27:30.970Z,5.78
2018-06-03T07:29:58.875Z,5.67
2018-06-03T07:32:27.538Z,5.43
2018-06-03T07:34:55.477Z,5.70
2018-06-03T07:37:23.344Z,5.45
2018-06-03T07:39:51.242Z,5.80
2018-06-03T07:42:19.128Z,5.03
2018-06-03T07:44:46.999Z,4.57
2018-06-03T07:47:14.886Z,4.50
2018-06-03T07:49:43.527Z,4.63
2018-06-03T07:52:11.437Z,4.65
2018-06-03T07:54:40.090Z,4.60
2018-06-03T07:57:08.001Z,5.28
2018-06-03T07:59:35.884Z,5.45
2018-06-03T08:02:03.799Z,5.37
2018-06-03T08:04:31.720Z,4.83
2018-06-03T08:06:59.592Z,5.93
2018-06-03T08:09:27.455Z,6.43
2018-06-03T08:11:55.339Z,6.17
2018-06-03T08:14:23.216Z,5.67
2018-06-03T08:16:51.096Z,6.15
2018-06-03T08:19:18.995Z,6.20
2018-06-03T08:21:47.642Z,6.23
2018-06-03T08:24:15.553Z,5.70
2018-06-03T08:26:44.214Z,5.90
2018-06-03T08:29:12.094Z,5.40
2018-06-03T08:31:40.748Z,5.57
2018-06-03T08:34:08.628Z,5.70
2018-06-03T08:36:36.501Z,5.47
2018-06-03T08:39:04.559Z,5.50
2018-06-03T08:41:32.454Z,5.70
2018-06-03T08:44:01.316Z,5.10
2018-06-03T08:46:29.286Z,5.67
2018-06-03T08:48:57.199Z,5.53
2018-06-03T08:51:25.887Z,5.63
2018-06-03T08:53:53.776Z,5.83
2018-06-03T08:56:21.651Z,6.00
2018-06-03T08:58:49.519Z,5.87
2018-06-03T09:01:17.424Z,5.90
2018-06-03T09:03:45.380Z,5.57
2018-06-03T09:06:13.350Z,5.95
2018-06-03T09:08:41.259Z,6.30
2018-06-03T09:11:09.186Z,5.97
2018-06-03T09:13:37.087Z,6.07
2018-06-03T09:16:05.764Z,6.60
2018-06-03T09:18:34.448Z,6.37
2018-06-03T09:21:02.348Z,6.43
2018-06-03T09:23:30.248Z,6.37
2018-06-03T09:25:58.153Z,6.20
2018-06-03T09:28:26.817Z,6.17
2018-06-03T09:30:54.849Z,7.33
2018-06-03T09:33:22.822Z,7.70
2018-06-03T09:35:50.846Z,8.27
2018-06-03T09:38:18.740Z,8.63
2018-06-03T09:40:47.438Z,8.10
2018-06-03T09:43:15.345Z,7.13
2018-06-03T09:45:43.223Z,6.43
2018-06-03T09:48:11.157Z,7.40
2018-06-03T09:50:39.075Z,8.20
2018-06-03T09:53:07.054Z,7.60
2018-06-03T09:55:34.937Z,6.80
2018-06-03T09:58:03.604Z,6.63
2018-06-03T10:00:32.428Z,7.03
2018-06-03T10:03:00.291Z,7.20
2018-06-03T10:05:28.170Z,7.23
2018-06-03T10:07:56.067Z,7.10
2018-06-03T10:10:24.041Z,6.90
2018-06-03T10:12:51.914Z,6.67
2018-06-03T10:15:19.777Z,7.80
2018-06-03T10:17:47.758Z,7.00
2018-06-03T10:20:15.679Z,7.50
2018-06-03T10:22:43.601Z,7.47
2018-06-03T10:25:11.499Z,8.40
2018-06-03T10:27:39.360Z,8.47
2018-06-03T10:30:08.048Z,8.75
2018-06-03T10:32:35.947Z,8.37
2018-06-03T10:35:03.882Z,8.73
2018-06-03T10:37:32.627Z,10.57
2018-06-03T10:40:00.558Z,8.23
2018-06-03T10:42:28.512Z,7.67
2018-06-03T10:44:56.425Z,7.80
2018-06-03T10:47:24.321Z,8.07
2018-06-03T10:49:52.184Z,7.30
2018-06-03T10:52:23.302Z,7.53
2018-06-03T10:54:51.179Z,8.30
2018-06-03T10:57:19.078Z,7.40
2018-06-03T10:59:47.770Z,8.38
2018-06-03T11:02:15.721Z,7.80
2018-06-03T11:04:43.593Z,7.57
2018-06-03T11:07:11.487Z,7.97
2018-06-03T11:09:39.384Z,7.60
2018-06-03T11:12:07.270Z,7.80
2018-06-03T11:14:35.139Z,8.15
2018-06-03T11:17:03.073Z,7.15
2018-06-03T11:19:30.987Z,7.07
2018-06-03T11:21:58.851Z,6.85
2018-06-03T11:24:26.777Z,6.95
2018-06-03T11:26:54.690Z,6.78
2018-06-03T11:29:22.581Z,6.80
2018-06-03T11:31:51.251Z,6.57
2018-06-03T11:34:19.179Z,7.70
2018-06-03T11:36:47.067Z,7.77
2018-06-03T11:39:14.985Z,6.57
2018-06-03T11:41:43.652Z,6.85
2018-06-03T11:44:12.309Z,6.68
2018-06-03T11:46:40.970Z,8.80
2018-06-03T11:49:08.865Z,6.70
2018-06-03T11:51:36.794Z,6.75
2018-06-03T11:54:04.887Z,6.85
2018-06-03T11:56:44.529Z,7.57
2018-06-03T11:59:12.584Z,6.62
2018-06-03T12:01:40.538Z,7.12
2018-06-03T12:04:08.423Z,7.10
2018-06-03T12:06:37.251Z,6.97
2018-06-03T12:09:05.277Z,7.47
2018-06-03T12:11:33.199Z,7.35
2018-06-03T12:14:01.218Z,6.75
2018-06-03T12:16:29.137Z,7.05
2018-06-03T12:18:57.013Z,7.15
2018-06-03T12:21:24.910Z,7.25
2018-06-03T12:23:52.821Z,7.00
2018-06-03T12:26:20.711Z,7.20
2018-06-03T12:28:48.616Z,7.40
2018-06-03T12:31:16.539Z,7.37
2018-06-03T12:33:44.450Z,6.82
2018-06-03T12:36:12.363Z,6.90
2018-06-03T12:38:40.257Z,6.47
2018-06-03T12:41:08.180Z,6.97
2018-06-03T12:43:36.081Z,7.15
2018-06-03T12:46:03.965Z,7.28
2018-06-03T12:48:31.883Z,7.78
2018-06-03T12:50:59.812Z,6.87
2018-06-03T12:53:28.488Z,7.43
2018-06-03T12:55:56.412Z,8.10
2018-06-03T12:58:24.303Z,7.10
2018-06-03T13:00:52.198Z,5.78
2018-06-03T13:03:20.882Z,6.20
2018-06-03T13:05:48.781Z,6.30
2018-06-03T13:08:16.699Z,8.35
2018-06-03T13:10:44.621Z,7.22
2018-06-03T13:13:12.568Z,7.50
2018-06-03T13:15:41.245Z,7.50
2018-06-03T13:18:09.909Z,7.15
2018-06-03T13:20:37.800Z,8.60
2018-06-03T13:23:06.495Z,7.47
2018-06-03T13:25:35.158Z,8.03
2018-06-03T13:28:03.143Z,7.30
2018-06-03T13:30:32.009Z,7.97
2018-06-03T13:32:59.912Z,8.23
2018-06-03T13:35:28.591Z,8.18
2018-06-03T13:37:57.263Z,7.60
2018-06-03T13:40:25.172Z,7.80
2018-06-03T13:42:53.114Z,8.20
2018-06-03T13:45:21.784Z,7.57
2018-06-03T13:47:49.671Z,8.15
2018-06-03T13:50:18.351Z,7.18
2018-06-03T13:52:46.993Z,6.90
2018-06-03T13:55:14.911Z,6.62
2018-06-03T13:57:43.597Z,7.72
2018-06-03T14:00:12.234Z,9.18
2018-06-03T14:02:40.144Z,8.68
2018-06-03T14:05:08.836Z,7.72
2018-06-03T14:07:37.537Z,8.23
2018-06-03T14:10:06.196Z,8.18
2018-06-03T14:12:34.212Z,8.75
2018-06-03T14:15:02.192Z,8.40
2018-06-03T14:17:30.079Z,7.22
2018-06-03T14:19:57.970Z,8.35
2018-06-03T14:22:25.870Z,9.73
2018-06-03T14:24:53.793Z,7.65
2018-06-03T14:27:22.061Z,8.25
2018-06-03T14:29:50.081Z,8.52
2018-06-03T14:32:17.983Z,8.32
2018-06-03T14:34:45.888Z,8.68
2018-06-03T14:37:52.595Z,7.17
2018-06-03T14:40:22.295Z,8.20
2018-06-03T14:42:51.950Z,8.33
2018-06-03T14:45:21.997Z,7.72
2018-06-03T14:47:52.690Z,9.23
2018-06-03T14:50:22.638Z,9.48
2018-06-03T14:52:52.037Z,9.80
2018-06-03T14:55:21.678Z,10.80
2018-06-03T14:57:51.391Z,10.90
2018-06-03T15:00:21.002Z,10.43
2018-06-03T15:02:50.746Z,9.55
2018-06-03T15:05:20.407Z,9.33
2018-06-03T15:07:50.276Z,9.98
2018-06-03T15:10:19.886Z,11.68
2018-06-03T15:12:49.617Z,10.18
2018-06-03T15:15:19.290Z,8.65
2018-06-03T15:17:49.025Z,8.63
2018-06-03T15:20:18.777Z,7.83
2018-06-03T15:22:49.388Z,7.50
2018-06-03T15:25:20.380Z,7.85
2018-06-03T15:27:50.036Z,9.93
2018-06-03T15:30:19.689Z,13.45
2018-06-03T15:32:49.385Z,8.98
2018-06-03T15:35:19.396Z,9.58
2018-06-03T15:37:49.530Z,10.05
2018-06-03T15:40:19.316Z,11.12
2018-06-03T15:42:49.836Z,10.75
2018-06-03T15:45:19.463Z,11.35
2018-06-03T15:47:49.145Z,8.95
2018-06-03T15:50:18.806Z,8.93
2018-06-03T15:52:48.459Z,8.40
2018-06-03T15:55:18.180Z,9.68
2018-06-03T15:57:48.100Z,8.70
2018-06-03T16:00:17.808Z,8.10
2018-06-03T16:02:47.489Z,8.30
2018-06-03T16:05:17.153Z,9.03
2018-06-03T16:07:46.841Z,9.98
2018-06-03T16:10:16.575Z,8.05
2018-06-03T16:12:46.249Z,9.80
2018-06-03T16:15:16.067Z,10.20
2018-06-03T16:17:45.717Z,10.00
2018-06-03T16:20:15.541Z,12.37
2018-06-03T16:22:45.248Z,9.98
2018-06-03T16:25:14.988Z,10.15
2018-06-03T16:27:44.808Z,12.25
2018-06-03T16:30:14.524Z,11.93
2018-06-03T16:32:44.332Z,10.40
2018-06-03T16:35:14.025Z,21.85
2018-06-03T16:37:43.804Z,10.98
2018-06-03T16:40:13.466Z,8.75
2018-06-03T16:42:43.179Z,8.13
2018-06-03T16:45:12.846Z,8.43
2018-06-03T16:47:41.843Z,9.28
2018-06-03T16:50:11.562Z,8.63
2018-06-03T16:52:41.353Z,7.03
2018-06-03T16:55:11.135Z,8.85
2018-06-03T16:57:40.800Z,8.40
2018-06-03T17:00:10.515Z,9.18
2018-06-03T17:02:40.184Z,9.53
2018-06-03T17:05:09.856Z,10.35
2018-06-03T17:07:39.643Z,12.90
2018-06-03T17:10:09.366Z,11.05
2018-06-03T17:12:39.005Z,9.25
2018-06-03T17:15:08.821Z,9.98
2018-06-03T17:17:38.553Z,9.40
2018-06-03T17:20:08.213Z,10.05
2018-06-03T17:22:37.972Z,9.25
2018-06-03T17:25:07.703Z,8.40
2018-06-03T17:27:37.408Z,8.15
2018-06-03T17:30:07.221Z,10.13
2018-06-03T17:32:36.930Z,12.73
2018-06-03T17:35:06.608Z,12.03
2018-06-03T17:37:36.327Z,10.40
2018-06-03T17:40:06.064Z,9.33
2018-06-03T17:42:35.093Z,33.28
2018-06-03T17:45:04.840Z,18.42
2018-06-03T17:47:34.496Z,24.60
2018-06-03T17:50:04.357Z,22.20
2018-06-03T17:52:34.073Z,13.43
2018-06-03T17:55:03.827Z,15.75
2018-06-03T17:57:33.581Z,30.80
2018-06-03T18:00:03.341Z,32.33
2018-06-03T18:02:33.090Z,22.70
2018-06-03T18:05:02.759Z,20.27
2018-06-03T18:07:32.549Z,23.55
2018-06-03T18:10:02.306Z,23.47
2018-06-03T18:12:32.009Z,13.15
2018-06-03T18:15:01.779Z,11.93
2018-06-03T18:17:31.474Z,12.10
2018-06-03T18:20:01.130Z,12.37
2018-06-03T18:22:30.272Z,11.20
2018-06-03T18:25:00.050Z,11.30
2018-06-03T18:27:29.720Z,12.90
2018-06-03T18:29:59.366Z,12.47
2018-06-03T18:32:29.038Z,13.33
2018-06-03T18:34:58.765Z,13.37
2018-06-03T18:37:28.373Z,12.10
2018-06-03T18:39:58.157Z,11.97
2018-06-03T18:42:27.787Z,12.83
2018-06-03T18:44:57.434Z,13.73
2018-06-03T18:47:27.077Z,14.23
2018-06-03T18:49:56.758Z,14.00
2018-06-03T18:52:26.477Z,13.43
2018-06-03T18:54:56.124Z,13.23
2018-06-03T18:57:25.827Z,12.27
2018-06-03T18:59:55.579Z,12.23
2018-06-03T19:02:25.347Z,11.63
2018-06-03T19:04:55.079Z,11.67
2018-06-03T19:07:24.736Z,11.47
2018-06-03T19:09:54.564Z,11.43
2018-06-03T19:12:25.109Z,11.80
2018-06-03T19:14:54.838Z,10.90
2018-06-03T19:17:23.922Z,10.80
2018-06-03T19:22:26.525Z,10.77
2018-06-03T19:24:56.271Z,10.07
2018-06-03T19:27:25.993Z,11.30
2018-06-03T19:29:55.656Z,11.70
2018-06-03T19:32:25.372Z,11.97
2018-06-03T19:34:55.027Z,13.53
2018-06-03T19:37:24.748Z,11.60
2018-06-03T19:39:54.428Z,11.47
2018-06-03T19:42:24.096Z,12.90
2018-06-03T19:44:53.767Z,12.00
2018-06-03T19:47:23.403Z,11.83
2018-06-03T19:49:53.036Z,11.10
2018-06-03T19:52:22.724Z,13.87
2018-06-03T19:54:52.402Z,14.73
2018-06-03T19:57:22.159Z,15.17
2018-06-03T19:59:51.874Z,19.77
2018-06-03T20:02:21.612Z,21.63
2018-06-03T20:04:51.383Z,23.83
2018-06-03T20:07:21.064Z,22.87
2018-06-03T20:09:50.753Z,20.83
2018-06-03T20:12:20.427Z,21.30
2018-06-03T20:14:50.093Z,24.33
2018-06-03T20:17:19.844Z,28.27
2018-06-03T20:19:49.562Z,28.57
2018-06-03T20:22:19.250Z,28.13
2018-06-03T20:24:48.894Z,20.07
2018-06-03T20:27:18.618Z,17.83
2018-06-03T20:29:48.330Z,17.97
2018-06-03T20:32:18.092Z,16.47
2018-06-03T20:34:47.811Z,16.50
2018-06-03T20:37:17.567Z,15.53
2018-06-03T20:39:47.285Z,15.80
2018-06-03T20:42:16.903Z,14.00
2018-06-03T20:44:46.613Z,14.90
2018-06-03T20:47:16.349Z,15.70
2018-06-03T20:49:46.066Z,17.97
2018-06-03T20:52:15.720Z,18.90
2018-06-03T20:54:45.418Z,18.93
2018-06-03T20:57:18.176Z,18.70
2018-06-03T20:59:47.883Z,18.63
2018-06-03T21:02:17.562Z,18.70
2018-06-03T21:04:47.298Z,17.47
2018-06-03T21:07:16.953Z,17.40
2018-06-03T21:09:46.615Z,17.20
2018-06-03T21:12:16.398Z,17.67
2018-06-03T21:14:46.063Z,19.07
2018-06-03T21:17:15.821Z,18.10
2018-06-03T21:19:45.524Z,18.90
2018-06-03T21:22:15.192Z,18.87
2018-06-03T21:24:44.838Z,19.17
2018-06-03T21:27:14.455Z,18.80
2018-06-03T21:29:44.130Z,18.27
2018-06-03T21:32:13.877Z,19.03
2018-06-03T21:34:43.596Z,19.10
2018-06-03T21:37:13.313Z,18.83
2018-06-03T21:39:43.016Z,19.17
2018-06-03T21:42:12.760Z,20.60
2018-06-03T21:44:42.484Z,18.67
2018-06-03T21:47:12.105Z,18.70
2018-06-03T21:49:41.737Z,19.77
2018-06-03T21:52:11.320Z,19.67
2018-06-03T21:54:41.007Z,18.50
2018-06-03T21:57:10.654Z,18.17
2018-06-03T21:59:40.385Z,19.23
2018-06-03T22:02:10.151Z,19.43
2018-06-03T22:04:39.908Z,19.43
2018-06-03T22:07:09.655Z,19.43
2018-06-03T22:09:39.371Z,19.93
2018-06-03T22:12:09.303Z,19.43
2018-06-03T22:14:39.032Z,20.33
2018-06-03T22:17:08.739Z,19.17
2018-06-03T22:19:38.408Z,19.83
2018-06-03T22:22:08.078Z,19.10
2018-06-03T22:24:37.878Z,18.87
2018-06-03T22:27:07.610Z,18.70
2018-06-03T22:29:37.299Z,18.87
2018-06-03T22:32:07.079Z,18.30
2018-06-03T22:34:36.790Z,17.33
2018-06-03T22:37:06.349Z,18.10
2018-06-03T22:39:36.056Z,18.30
2018-06-03T22:42:05.802Z,18.27
2018-06-03T22:44:35.552Z,17.20
2018-06-03T22:47:05.193Z,18.63
2018-06-03T22:49:34.824Z,17.70
2018-06-03T22:52:04.660Z,17.67
2018-06-03T22:54:34.401Z,19.17
2018-06-03T22:58:08.097Z,18.40
2018-06-03T23:00:37.189Z,18.53
2018-06-03T23:03:12.184Z,19.70
2018-06-03T23:05:41.880Z,17.93
2018-06-03T23:08:11.634Z,18.03
2018-06-03T23:10:41.352Z,19.47
2018-06-03T23:13:11.065Z,19.17
2018-06-03T23:15:40.748Z,19.30
2018-06-03T23:18:10.440Z,19.00
2018-06-03T23:20:40.079Z,19.23
2018-06-03T23:23:09.825Z,19.10
2018-06-03T23:25:39.539Z,19.33
2018-06-03T23:28:09.196Z,18.60
2018-06-03T23:30:38.883Z,19.37
2018-06-03T23:33:08.621Z,18.53
2018-06-03T23:35:38.327Z,18.40
2018-06-03T23:38:08.099Z,18.63
2018-06-03T23:40:37.771Z,18.30
2018-06-03T23:43:07.476Z,18.30
2018-06-03T23:45:37.343Z,18.03
2018-06-03T23:48:07.048Z,17.90
2018-06-03T23:50:36.759Z,17.10
2018-06-03T23:53:06.440Z,18.47
2018-06-03T23:55:35.479Z,19.17
2018-06-03T23:58:05.284Z,19.13
